createdAt,value
2019-02-15T06:35:07.504Z,36.90
2019-02-15T06:40:51.666Z,39.90
2019-02-15T06:43:23.513Z,51.23
2019-02-15T06:45:57.114Z,50.63
2019-02-15T06:48:27.359Z,50.87
2019-02-15T06:50:59.937Z,49.13
2019-02-15T06:53:35.471Z,45.43
2019-02-15T06:56:06.117Z,55.20
2019-02-15T06:58:45.619Z,52.43
2019-02-15T07:01:23.865Z,51.53
2019-02-15T07:04:02.893Z,50.03
2019-02-15T07:06:33.310Z,46.80
2019-02-15T07:09:05.786Z,41.90
2019-02-15T07:11:36.106Z,42.20
2019-02-15T07:14:04.887Z,51.13
2019-02-15T07:16:35.715Z,56.17
2019-02-15T07:21:35.542Z,41.13
2019-02-15T07:26:35.777Z,35.37
2019-02-15T07:31:35.612Z,32.40
2019-02-15T07:36:35.128Z,32.63
2019-02-15T07:41:35.074Z,36.00
2019-02-15T07:44:05.485Z,33.70
2019-02-15T07:46:39.701Z,34.63
2019-02-15T07:49:10.853Z,36.33
2019-02-15T07:54:09.444Z,36.50
2019-02-15T07:59:08.038Z,32.43
2019-02-15T08:01:46.979Z,33.80
2019-02-15T08:04:16.778Z,30.17
2019-02-15T08:06:46.902Z,37.30
2019-02-15T08:09:20.515Z,36.27
2019-02-15T08:11:51.652Z,32.73
2019-02-15T08:14:21.892Z,30.87
2019-02-15T08:16:53.121Z,33.80
2019-02-15T08:19:25.794Z,31.17
2019-02-15T08:21:55.904Z,29.10
2019-02-15T08:24:26.350Z,29.73
2019-02-15T08:52:45.463Z,27.50
2019-02-15T08:55:15.385Z,25.03
2019-02-15T08:57:44.576Z,27.23
2019-02-15T09:22:40.363Z,24.43
2019-02-15T09:25:09.743Z,24.90
2019-02-15T09:27:47.852Z,22.40
2019-02-15T09:30:22.061Z,24.17
2019-02-15T09:32:51.152Z,22.53
2019-02-15T09:35:20.101Z,23.47
2019-02-15T09:37:49.051Z,22.60
2019-02-15T09:47:44.294Z,22.63
2019-02-15T09:50:14.511Z,22.60
2019-02-15T09:55:13.926Z,22.47
2019-02-15T09:57:43.980Z,21.10
2019-02-15T10:00:14.112Z,23.83
2019-02-15T10:05:13.282Z,21.20
2019-02-15T10:07:43.502Z,19.67
2019-02-15T10:10:14.113Z,21.73
2019-02-15T10:15:13.871Z,21.70
2019-02-15T10:17:44.380Z,19.07
2019-02-15T10:22:43.810Z,20.43
2019-02-15T10:25:13.933Z,19.17
2019-02-15T10:27:44.766Z,20.63
2019-02-15T10:30:15.802Z,21.53
2019-02-15T10:32:46.842Z,17.77
2019-02-15T10:35:16.758Z,23.63
2019-02-15T10:37:50.252Z,22.40
2019-02-15T10:40:20.103Z,21.07
2019-02-15T10:42:50.412Z,21.03
2019-02-15T10:45:20.813Z,21.97
2019-02-15T10:52:52.112Z,23.53
2019-02-15T10:55:21.084Z,23.60
2019-02-15T10:57:51.610Z,22.10
2019-02-15T11:07:50.451Z,23.33
2019-02-15T11:12:49.671Z,22.70
2019-02-15T11:15:20.851Z,21.93
2019-02-15T11:18:00.472Z,22.87
2019-02-15T11:20:53.120Z,23.53
2019-02-15T11:26:56.212Z,23.30
2019-02-15T11:29:25.940Z,22.43
2019-02-15T11:31:59.522Z,25.57
2019-02-15T11:34:29.852Z,23.43
2019-02-15T11:39:27.533Z,23.33
2019-02-15T11:41:56.333Z,24.37
2019-02-15T11:44:26.432Z,24.63
2019-02-15T11:46:56.876Z,24.07
2019-02-15T11:49:26.660Z,21.60
2019-02-15T11:51:55.773Z,22.53
2019-02-15T11:54:25.473Z,20.93
2019-02-15T11:59:23.872Z,19.23
2019-02-15T12:04:22.773Z,18.33
2019-02-15T12:06:51.663Z,20.27
2019-02-15T12:09:23.735Z,17.37
2019-02-15T12:11:52.822Z,15.73
2019-02-15T12:14:23.655Z,16.17
2019-02-15T12:19:21.432Z,16.50
2019-02-15T12:21:49.920Z,15.13
2019-02-15T12:24:19.723Z,16.30
2019-02-15T12:26:48.623Z,17.30
2019-02-15T12:29:18.953Z,16.23
2019-02-15T12:31:48.752Z,15.20
2019-02-15T12:36:51.132Z,16.93
2019-02-15T12:39:19.934Z,15.77
2019-02-15T12:41:50.458Z,16.10
2019-02-15T12:44:19.453Z,14.70
2019-02-15T12:46:49.789Z,12.60
2019-02-15T12:49:19.682Z,12.87
2019-02-15T12:51:51.101Z,13.13
2019-02-15T12:54:21.893Z,11.97
2019-02-15T12:56:52.513Z,12.17
2019-02-15T12:59:26.928Z,12.73
2019-02-15T13:02:13.438Z,12.00
2019-02-15T13:04:47.543Z,12.73
2019-02-15T13:07:23.613Z,16.37
2019-02-15T13:09:55.862Z,12.00
2019-02-15T13:14:59.122Z,13.10
2019-02-15T13:17:29.194Z,12.57
2019-02-15T13:19:59.317Z,11.33
2019-02-15T13:22:29.662Z,12.97
2019-02-15T13:24:59.442Z,12.13
2019-02-15T13:27:29.692Z,12.57
2019-02-15T13:32:28.379Z,13.30
2019-02-15T13:34:58.486Z,13.63
2019-02-15T13:37:35.780Z,13.43
2019-02-15T13:40:11.114Z,14.80
2019-02-15T13:42:41.128Z,11.70
2019-02-15T13:45:17.499Z,13.27
2019-02-15T13:47:52.460Z,12.47
2019-02-15T14:05:34.756Z,35.10
2019-02-15T14:08:07.623Z,54.63
2019-02-15T14:10:38.450Z,15.00
2019-02-15T14:13:12.380Z,18.30
2019-02-15T14:21:45.908Z,19.73
2019-02-15T14:24:19.909Z,18.03
2019-02-15T14:36:46.837Z,25.03
2019-02-15T14:39:18.064Z,28.67
2019-02-15T14:41:49.518Z,28.87
2019-02-15T14:51:46.845Z,19.23
2019-02-15T14:54:17.468Z,19.47
2019-02-15T14:56:55.197Z,19.17
2019-02-15T15:02:34.428Z,19.13
2019-02-15T15:05:09.868Z,22.70
2019-02-15T15:07:42.572Z,22.43
2019-02-15T15:16:03.089Z,21.87
2019-02-15T15:18:37.364Z,21.23
2019-02-15T15:21:07.916Z,19.10
2019-02-15T15:23:38.878Z,22.43
2019-02-15T15:46:58.965Z,22.43
2019-02-15T15:57:44.111Z,30.67
2019-02-15T16:29:55.864Z,31.83
2019-02-15T16:32:26.804Z,33.43
2019-02-15T16:34:59.276Z,30.83
2019-02-15T16:37:34.748Z,27.97
2019-02-15T16:47:51.678Z,42.50
2019-02-15T16:50:22.510Z,36.97
2019-02-15T16:52:53.468Z,31.10
2019-02-15T16:55:24.716Z,26.27
2019-02-15T16:57:56.876Z,28.83
2019-02-15T17:00:37.436Z,28.17
2019-02-15T17:03:10.428Z,29.77
2019-02-15T17:05:45.076Z,34.40
2019-02-15T17:08:44.876Z,34.80
2019-02-15T17:11:38.451Z,38.23
2019-02-15T17:20:51.901Z,41.90
2019-02-15T17:40:48.249Z,38.70
2019-02-15T17:51:43.590Z,42.50
2019-02-15T17:54:14.844Z,40.30
2019-02-15T17:56:46.108Z,37.53
2019-02-15T17:59:41.156Z,33.13
2019-02-15T18:04:47.509Z,32.80
2019-02-15T18:07:18.926Z,32.40
2019-02-15T18:13:14.928Z,31.07
2019-02-15T18:18:27.513Z,31.00
2019-02-15T18:20:59.878Z,31.20
2019-02-15T18:23:38.511Z,30.20
2019-02-15T18:26:11.997Z,30.07
2019-02-15T18:28:44.684Z,30.20
2019-02-15T18:31:17.286Z,31.83
2019-02-15T18:33:49.844Z,31.03
2019-02-15T18:36:42.924Z,31.80
2019-02-15T18:39:20.076Z,36.93
2019-02-15T18:42:09.436Z,40.00
2019-02-15T18:47:19.917Z,44.00
2019-02-15T18:50:02.876Z,48.60
2019-02-15T18:55:22.924Z,51.43
2019-02-15T18:57:53.997Z,53.70
2019-02-15T19:21:07.338Z,49.03
2019-02-15T19:26:06.756Z,48.77
2019-02-15T19:28:36.049Z,56.73
2019-02-15T19:31:12.000Z,53.93
2019-02-15T19:33:47.445Z,59.10
2019-02-15T19:36:17.764Z,40.83
2019-02-15T19:38:52.119Z,39.53
2019-02-15T19:41:22.844Z,45.13
2019-02-15T19:43:56.103Z,44.87
2019-02-15T19:46:28.701Z,45.77
2019-02-15T19:49:00.974Z,41.03
2019-02-15T19:54:13.079Z,43.67
2019-02-15T19:56:54.365Z,44.13
2019-02-15T19:59:24.908Z,43.03
2019-02-15T20:04:23.718Z,38.40
2019-02-15T20:06:53.005Z,35.53
2019-02-15T20:09:23.240Z,32.60
2019-02-15T20:14:22.843Z,31.17
2019-02-15T20:16:51.724Z,28.87
2019-02-15T20:19:23.087Z,27.90
2019-02-15T20:21:53.803Z,30.07
2019-02-15T20:27:20.245Z,27.77
2019-02-15T20:29:58.678Z,30.90
2019-02-15T20:32:34.116Z,27.43
2019-02-15T20:40:24.964Z,32.03
2019-02-15T20:43:02.743Z,31.13
2019-02-15T20:48:03.934Z,29.90
2019-02-15T20:51:03.724Z,30.80
2019-02-15T20:53:35.712Z,30.17
2019-02-15T20:56:12.350Z,28.80
2019-02-15T20:59:06.116Z,34.07
2019-02-15T21:01:38.399Z,38.43
2019-02-15T21:04:27.372Z,42.67
2019-02-15T21:07:02.399Z,39.27
2019-02-15T21:09:44.396Z,38.43
2019-02-15T21:12:43.304Z,41.00
2019-02-15T21:15:25.484Z,41.30
2019-02-15T21:18:02.764Z,42.03
2019-02-15T21:20:33.821Z,41.83
2019-02-15T21:23:04.962Z,38.73
2019-02-15T21:25:38.364Z,39.70
2019-02-15T21:28:15.636Z,39.33
2019-02-15T21:31:02.988Z,40.00
2019-02-15T21:34:02.788Z,37.90
2019-02-15T21:36:41.795Z,37.47
2019-02-15T21:39:28.312Z,39.57
2019-02-15T21:42:08.773Z,39.70
2019-02-15T21:44:47.913Z,38.90
2019-02-15T21:47:20.475Z,35.63
2019-02-15T21:49:53.263Z,39.83
2019-02-15T21:52:43.529Z,40.90
2019-02-15T21:55:08.438Z,39.40
2019-02-15T21:57:40.308Z,42.13
2019-02-15T22:00:12.789Z,41.70
2019-02-15T22:10:34.996Z,38.50
2019-02-15T22:13:09.876Z,37.63
2019-02-15T22:20:53.383Z,39.87
2019-02-15T22:23:27.472Z,43.10
2019-02-15T22:26:14.382Z,41.37
2019-02-15T22:31:46.376Z,36.33
2019-02-15T22:34:21.802Z,38.87
2019-02-15T22:37:14.104Z,38.70
2019-02-15T22:59:31.515Z,40.60
2019-02-15T23:02:02.634Z,42.07
2019-02-15T23:04:32.756Z,37.43
2019-02-15T23:07:04.644Z,40.43
2019-02-15T23:09:54.312Z,41.60
2019-02-15T23:12:29.035Z,43.03
2019-02-15T23:15:05.501Z,47.03
2019-02-15T23:17:42.794Z,49.40
2019-02-15T23:20:15.888Z,46.93
2019-02-15T23:22:46.895Z,46.57
2019-02-15T23:25:25.110Z,44.67
2019-02-15T23:27:54.810Z,42.90
2019-02-15T23:30:27.507Z,41.53
2019-02-15T23:33:17.314Z,40.63
2019-02-15T23:35:49.439Z,39.37
2019-02-15T23:38:24.280Z,39.40
2019-02-15T23:40:58.093Z,42.37
2019-02-15T23:43:28.618Z,40.20
2019-02-15T23:46:02.208Z,45.83
2019-02-15T23:51:48.724Z,43.90
2019-02-15T23:54:17.521Z,47.00
2019-02-15T23:56:48.094Z,48.30
2019-02-15T23:59:18.465Z,46.83
